createdAt,value
2023-04-28T00:02:05.070Z,5.99
2023-04-28T00:04:32.910Z,5.96
2023-04-28T00:07:00.405Z,5.91
2023-04-28T00:09:28.454Z,5.92
2023-04-28T00:11:55.630Z,5.93
2023-04-28T00:14:23.319Z,5.84
2023-04-28T00:16:50.723Z,5.83
2023-04-28T00:19:18.297Z,5.77
2023-04-28T00:21:45.589Z,5.69
2023-04-28T00:24:13.010Z,5.63
2023-04-28T00:26:40.281Z,5.60
2023-04-28T00:29:07.674Z,5.61
2023-04-28T00:31:35.492Z,5.60
2023-04-28T00:34:03.099Z,5.63
2023-04-28T00:36:32.272Z,5.59
2023-04-28T00:39:03.189Z,5.56
2023-04-28T00:41:30.571Z,5.57
2023-04-28T00:43:57.900Z,5.47
2023-04-28T00:46:33.509Z,5.53
2023-04-28T00:49:01.193Z,5.56
2023-04-28T00:51:28.983Z,5.51
2023-04-28T00:53:57.398Z,5.47
2023-04-28T00:56:27.436Z,5.45
2023-04-28T00:58:55.698Z,5.45
2023-04-28T01:01:23.034Z,5.42
2023-04-28T01:03:51.616Z,5.42
2023-04-28T01:06:20.385Z,5.40
2023-04-28T01:08:53.356Z,5.40
2023-04-28T01:11:20.831Z,5.33
2023-04-28T01:14:17.761Z,5.31
2023-04-28T01:16:45.572Z,5.25
2023-04-28T01:19:22.431Z,5.20
2023-04-28T01:21:51.406Z,5.21
2023-04-28T01:24:23.217Z,5.19
2023-04-28T01:26:51.067Z,5.17
2023-04-28T01:29:18.743Z,5.15
2023-04-28T01:31:46.053Z,5.17
2023-04-28T01:34:13.837Z,5.15
2023-04-28T01:36:42.689Z,5.12
2023-04-28T01:39:11.247Z,5.15
2023-04-28T01:41:40.921Z,5.13
2023-04-28T01:44:08.675Z,5.13
2023-04-28T01:46:36.548Z,5.14
2023-04-28T01:49:04.116Z,5.11
2023-04-28T01:51:31.273Z,5.07
2023-04-28T01:53:58.703Z,5.10
2023-04-28T01:56:25.846Z,5.00
2023-04-28T01:58:56.092Z,4.93
2023-04-28T02:01:23.907Z,4.87
2023-04-28T02:03:51.731Z,4.85
2023-04-28T02:06:19.052Z,4.82
2023-04-28T02:08:46.576Z,4.81
2023-04-28T02:11:13.771Z,4.76
2023-04-28T02:13:41.619Z,4.71
2023-04-28T02:16:08.951Z,4.70
2023-04-28T02:18:36.501Z,4.64
2023-04-28T02:21:11.999Z,4.61
2023-04-28T02:23:40.702Z,4.62
2023-04-28T02:26:08.127Z,4.64
2023-04-28T02:28:35.609Z,4.63
2023-04-28T02:31:06.718Z,4.61
2023-04-28T02:33:34.532Z,4.58
2023-04-28T02:36:04.725Z,4.54
2023-04-28T02:38:32.236Z,4.57
2023-04-28T02:41:05.830Z,4.54
2023-04-28T02:43:34.744Z,4.53
2023-04-28T02:46:04.382Z,4.54
2023-04-28T02:48:33.459Z,4.53
2023-04-28T02:51:00.524Z,4.50
2023-04-28T02:53:28.828Z,4.50
2023-04-28T02:55:56.108Z,4.48
2023-04-28T02:58:23.537Z,4.46
2023-04-28T03:00:50.691Z,4.46
2023-04-28T03:03:18.843Z,4.44
2023-04-28T03:05:46.403Z,4.41
2023-04-28T03:08:13.786Z,4.42
2023-04-28T03:10:41.084Z,4.42
2023-04-28T03:13:08.656Z,4.41
2023-04-28T03:15:35.926Z,4.37
2023-04-28T03:18:04.583Z,4.37
2023-04-28T03:20:31.801Z,4.35
2023-04-28T03:22:59.177Z,4.35
2023-04-28T03:25:26.438Z,4.33
2023-04-28T03:27:54.061Z,4.30
2023-04-28T03:30:23.586Z,4.30
2023-04-28T03:32:51.143Z,4.25
2023-04-28T03:35:18.588Z,4.25
2023-04-28T03:37:45.993Z,4.25
2023-04-28T03:40:13.450Z,4.22
2023-04-28T03:43:19.143Z,4.21
2023-04-28T03:46:06.036Z,4.18
2023-04-28T03:48:34.206Z,4.15
2023-04-28T03:51:01.352Z,4.17
2023-04-28T03:53:29.042Z,4.17
2023-04-28T03:55:56.315Z,4.14
2023-04-28T03:58:23.846Z,4.11
2023-04-28T04:00:51.060Z,4.12
2023-04-28T04:03:20.334Z,4.11
2023-04-28T04:05:48.454Z,4.16
2023-04-28T04:08:16.875Z,4.17
2023-04-28T04:10:44.166Z,4.21
2023-04-28T04:13:11.559Z,4.18
2023-04-28T04:15:38.818Z,4.18
2023-04-28T04:18:07.176Z,4.15
2023-04-28T04:21:00.838Z,4.17
2023-04-28T04:23:28.410Z,4.22
2023-04-28T04:25:56.277Z,4.30
2023-04-28T04:28:23.665Z,4.35
2023-04-28T04:30:50.917Z,4.40
2023-04-28T04:33:18.570Z,4.50
2023-04-28T04:35:46.583Z,4.59
2023-04-28T04:38:13.984Z,4.73
2023-04-28T04:40:41.290Z,4.84
2023-04-28T04:43:08.813Z,4.93
2023-04-28T04:45:43.363Z,5.03
2023-04-28T04:48:11.868Z,5.14
2023-04-28T04:50:38.951Z,5.26
2023-04-28T04:53:08.476Z,5.43
2023-04-28T04:55:37.933Z,5.54
2023-04-28T04:58:05.759Z,5.67
2023-04-28T05:01:04.316Z,5.84
2023-04-28T05:03:31.854Z,5.96
2023-04-28T05:06:00.043Z,6.11
2023-04-28T05:09:00.059Z,6.28
2023-04-28T05:11:30.617Z,6.42
2023-04-28T05:13:57.976Z,6.56
2023-04-28T05:16:25.629Z,6.74
2023-04-28T05:19:22.420Z,6.96
2023-04-28T05:21:52.523Z,7.20
2023-04-28T05:24:24.247Z,7.43
2023-04-28T05:26:54.082Z,7.70
2023-04-28T05:29:21.931Z,7.91
2023-04-28T05:31:49.267Z,8.10
2023-04-28T05:34:17.182Z,8.34
2023-04-28T05:36:45.089Z,8.59
2023-04-28T05:39:13.704Z,8.81
2023-04-28T05:41:42.414Z,9.02
2023-04-28T05:44:10.003Z,9.34
2023-04-28T05:46:37.549Z,9.69
2023-04-28T05:49:05.204Z,9.96
2023-04-28T05:51:36.012Z,10.16
2023-04-28T05:54:03.901Z,10.30
2023-04-28T05:56:34.408Z,10.41
2023-04-28T05:59:04.499Z,10.49
2023-04-28T06:01:32.798Z,10.74
2023-04-28T06:04:00.716Z,10.91
2023-04-28T06:06:28.375Z,11.09
2023-04-28T06:08:56.155Z,11.17
2023-04-28T06:11:23.313Z,11.28
2023-04-28T06:13:51.538Z,11.53
2023-04-28T06:16:19.467Z,11.76
2023-04-28T06:18:49.712Z,12.06
2023-04-28T06:21:17.886Z,12.22
2023-04-28T06:23:46.083Z,12.36
2023-04-28T06:26:14.730Z,12.48
2023-04-28T06:28:43.367Z,12.66
2023-04-28T06:31:10.762Z,12.86
2023-04-28T06:33:39.087Z,13.01
2023-04-28T06:36:07.728Z,13.19
2023-04-28T06:38:35.211Z,13.41
2023-04-28T06:41:02.984Z,13.68
2023-04-28T06:43:33.370Z,13.95
2023-04-28T06:46:10.853Z,14.00
2023-04-28T06:48:38.513Z,13.88
2023-04-28T06:51:06.063Z,14.07
2023-04-28T06:53:35.625Z,14.28
2023-04-28T06:56:04.463Z,14.39
2023-04-28T06:58:32.236Z,14.36
2023-04-28T07:00:59.654Z,14.40
2023-04-28T07:03:27.881Z,14.65
2023-04-28T07:05:55.133Z,14.82
2023-04-28T07:08:22.939Z,15.35
2023-04-28T07:10:49.955Z,15.82
2023-04-28T07:13:17.396Z,15.89
2023-04-28T07:15:44.610Z,16.04
2023-04-28T07:18:12.060Z,16.32
2023-04-28T07:20:39.358Z,16.49
2023-04-28T07:23:06.789Z,16.53
2023-04-28T07:25:35.143Z,16.58
2023-04-28T07:28:04.797Z,17.10
2023-04-28T07:30:32.007Z,17.45
2023-04-28T07:33:01.005Z,17.31
2023-04-28T07:35:29.605Z,17.44
2023-04-28T07:37:58.013Z,17.74
2023-04-28T07:40:25.179Z,18.01
2023-04-28T07:42:52.886Z,18.25
2023-04-28T07:45:20.342Z,18.09
2023-04-28T07:47:47.842Z,18.19
2023-04-28T07:50:16.044Z,18.45
2023-04-28T07:52:44.628Z,18.79
2023-04-28T07:55:11.866Z,19.15
2023-04-28T07:57:39.485Z,19.42
2023-04-28T08:00:07.621Z,19.42
2023-04-28T08:02:41.166Z,19.41
2023-04-28T08:05:09.860Z,19.49
2023-04-28T08:07:38.034Z,19.67
2023-04-28T08:10:07.051Z,19.77
2023-04-28T08:12:34.565Z,19.88
2023-04-28T08:15:04.913Z,20.02
2023-04-28T08:17:32.233Z,20.01
2023-04-28T08:19:59.413Z,19.88
2023-04-28T08:22:26.845Z,19.83
2023-04-28T08:24:53.899Z,19.79
2023-04-28T08:27:21.287Z,19.95
2023-04-28T08:29:48.429Z,20.15
2023-04-28T08:32:15.903Z,20.17
2023-04-28T08:34:43.213Z,20.20
2023-04-28T08:37:10.953Z,20.19
2023-04-28T08:39:38.007Z,20.21
2023-04-28T08:42:05.982Z,20.32
2023-04-28T08:44:40.473Z,20.62
2023-04-28T08:47:15.107Z,21.01
2023-04-28T08:49:44.943Z,21.29
2023-04-28T08:52:17.264Z,21.64
2023-04-28T08:54:46.014Z,21.82
2023-04-28T08:57:13.765Z,21.96
2023-04-28T08:59:41.701Z,22.02
2023-04-28T09:02:09.818Z,22.04
2023-04-28T09:04:37.956Z,22.00
2023-04-28T09:07:12.061Z,21.94
2023-04-28T09:09:40.804Z,21.93
2023-04-28T09:12:09.002Z,22.05
2023-04-28T09:14:38.755Z,22.19
2023-04-28T09:17:14.390Z,22.37
2023-04-28T09:19:45.298Z,22.42
2023-04-28T09:24:47.003Z,22.39
2023-04-28T09:27:15.455Z,22.46
2023-04-28T09:29:53.947Z,22.56
2023-04-28T09:32:23.954Z,22.73
2023-04-28T09:34:56.497Z,22.66
2023-04-28T09:37:27.378Z,22.76
2023-04-28T09:39:55.617Z,22.87
2023-04-28T09:42:38.425Z,22.80
2023-04-28T09:45:11.847Z,22.80
2023-04-28T09:47:48.532Z,22.76
2023-04-28T09:50:18.186Z,22.86
2023-04-28T09:52:57.254Z,22.81
2023-04-28T09:55:25.764Z,22.83
2023-04-28T09:57:55.706Z,22.98
2023-04-28T10:00:23.935Z,23.22
2023-04-28T10:02:52.561Z,23.45
2023-04-28T10:05:23.163Z,23.61
2023-04-28T10:07:54.031Z,23.85
2023-04-28T10:10:22.449Z,23.88
2023-04-28T10:12:51.475Z,24.06
2023-04-28T10:15:18.650Z,24.24
2023-04-28T10:17:48.206Z,24.38
2023-04-28T10:20:17.102Z,24.36
2023-04-28T10:23:06.672Z,24.41
2023-04-28T10:25:39.040Z,24.58
2023-04-28T10:28:09.161Z,24.65
2023-04-28T10:30:37.801Z,24.97
2023-04-28T10:33:14.398Z,25.21
2023-04-28T10:35:47.596Z,25.48
2023-04-28T10:38:17.940Z,25.65
2023-04-28T10:40:53.649Z,25.88
2023-04-28T10:43:32.993Z,25.91
2023-04-28T10:46:04.599Z,25.90
2023-04-28T10:48:37.022Z,25.98
2023-04-28T10:51:22.722Z,26.00
2023-04-28T10:53:51.249Z,25.96
2023-04-28T10:56:27.513Z,25.98
2023-04-28T10:58:56.970Z,25.85
2023-04-28T11:01:35.093Z,26.00
2023-04-28T11:04:16.837Z,25.88
2023-04-28T11:06:46.997Z,26.04
2023-04-28T11:09:21.064Z,26.10
2023-04-28T11:12:00.558Z,26.14
2023-04-28T11:14:36.598Z,26.40
2023-04-28T11:17:13.581Z,26.53
2023-04-28T11:19:45.111Z,26.53
2023-04-28T11:22:20.237Z,26.61
2023-04-28T11:25:03.959Z,26.87
2023-04-28T11:27:33.461Z,27.10
2023-04-28T11:30:01.692Z,27.38
2023-04-28T11:32:35.533Z,26.89
2023-04-28T11:35:04.729Z,26.47
2023-04-28T11:37:32.008Z,26.37
2023-04-28T11:40:10.611Z,26.51
2023-04-28T11:42:47.338Z,26.67
2023-04-28T11:45:14.992Z,26.81
2023-04-28T11:47:42.265Z,26.96
2023-04-28T11:50:09.875Z,27.15
2023-04-28T11:52:37.469Z,27.58
2023-04-28T11:55:07.302Z,27.68
2023-04-28T11:57:35.454Z,27.49
2023-04-28T12:00:21.984Z,27.38
2023-04-28T12:02:49.849Z,27.22
2023-04-28T12:05:17.620Z,27.05
2023-04-28T12:07:45.604Z,27.28
2023-04-28T12:10:18.883Z,27.53
2023-04-28T12:12:52.704Z,27.55
2023-04-28T12:15:22.862Z,27.44
2023-04-28T12:17:51.130Z,27.36
2023-04-28T12:20:39.492Z,27.04
2023-04-28T12:23:08.440Z,27.09
2023-04-28T12:25:47.838Z,27.19
2023-04-28T12:28:15.266Z,27.16
2023-04-28T12:30:43.393Z,27.00
2023-04-28T12:33:29.212Z,26.79
2023-04-28T12:35:58.201Z,26.81
2023-04-28T12:38:27.420Z,26.84
2023-04-28T12:40:55.501Z,26.70
2023-04-28T12:43:24.233Z,26.54
2023-04-28T12:45:56.493Z,26.05
2023-04-28T12:48:24.969Z,26.16
2023-04-28T12:50:52.437Z,26.03
2023-04-28T12:53:19.870Z,25.96
2023-04-28T12:55:47.902Z,26.06
2023-04-28T12:58:15.125Z,26.60
2023-04-28T13:00:43.061Z,26.72
2023-04-28T13:03:11.456Z,26.50
2023-04-28T13:05:39.041Z,26.79
2023-04-28T13:08:06.289Z,26.44
2023-04-28T13:10:33.697Z,25.82
2023-04-28T13:13:00.830Z,25.89
2023-04-28T13:15:28.731Z,26.25
2023-04-28T13:17:56.037Z,26.21
2023-04-28T13:20:23.506Z,25.90
2023-04-28T13:22:52.193Z,25.34
2023-04-28T13:25:19.646Z,25.36
2023-04-28T13:27:47.700Z,25.46
2023-04-28T13:30:15.052Z,25.38
2023-04-28T13:32:42.191Z,24.87
2023-04-28T13:35:09.855Z,24.55
2023-04-28T13:37:42.507Z,24.52
2023-04-28T13:40:11.687Z,24.55
2023-04-28T13:42:38.847Z,24.70
2023-04-28T13:45:06.828Z,24.86
2023-04-28T13:47:34.088Z,24.75
2023-04-28T13:50:02.050Z,24.98
2023-04-28T13:52:29.437Z,24.89
2023-04-28T13:54:57.001Z,24.96
2023-04-28T13:57:24.286Z,24.96
2023-04-28T13:59:51.697Z,25.19
2023-04-28T14:02:19.000Z,24.60
2023-04-28T14:04:49.354Z,24.68
2023-04-28T14:07:17.329Z,25.13
2023-04-28T14:09:44.996Z,25.48
2023-04-28T14:12:13.836Z,25.60
2023-04-28T14:14:41.593Z,25.30
2023-04-28T14:17:09.494Z,25.27
2023-04-28T14:19:37.107Z,25.22
2023-04-28T14:22:04.477Z,25.09
2023-04-28T14:24:31.875Z,25.15
2023-04-28T14:26:59.146Z,25.14
2023-04-28T14:29:26.586Z,25.27
2023-04-28T14:31:53.779Z,24.99
2023-04-28T14:34:21.257Z,24.91
2023-04-28T14:36:48.658Z,25.11
2023-04-28T14:39:16.281Z,25.42
2023-04-28T14:41:43.373Z,25.63
2023-04-28T14:44:10.921Z,24.40
2023-04-28T14:46:38.234Z,24.21
2023-04-28T14:49:06.058Z,24.27
2023-04-28T14:51:33.272Z,24.00
2023-04-28T14:54:01.084Z,24.02
2023-04-28T14:56:28.482Z,24.27
2023-04-28T14:58:55.821Z,24.50
2023-04-28T15:01:23.010Z,24.44
2023-04-28T15:03:50.637Z,24.28
2023-04-28T15:06:18.223Z,23.92
2023-04-28T15:08:46.288Z,23.49
2023-04-28T15:11:13.451Z,23.50
2023-04-28T15:13:42.857Z,22.69
2023-04-28T15:16:10.381Z,22.50
2023-04-28T15:18:38.330Z,22.85
2023-04-28T15:21:06.671Z,23.07
2023-04-28T15:23:34.109Z,23.52
2023-04-28T15:26:02.426Z,23.57
2023-04-28T15:28:30.089Z,23.66
2023-04-28T15:30:57.156Z,22.85
2023-04-28T15:33:24.711Z,22.90
2023-04-28T15:35:51.922Z,23.24
2023-04-28T15:38:19.357Z,23.30
2023-04-28T15:40:46.540Z,23.51
2023-04-28T15:43:13.930Z,23.17
2023-04-28T15:45:41.225Z,22.86
2023-04-28T15:48:10.089Z,22.72
2023-04-28T15:50:37.593Z,22.73
2023-04-28T15:53:04.957Z,22.61
2023-04-28T15:55:32.176Z,22.68
2023-04-28T15:58:01.221Z,22.68
2023-04-28T16:00:28.363Z,22.68
2023-04-28T16:02:55.862Z,22.49
2023-04-28T16:05:23.502Z,22.41
2023-04-28T16:07:52.585Z,22.22
2023-04-28T16:10:19.766Z,21.93
2023-04-28T16:12:47.240Z,21.23
2023-04-28T16:15:14.539Z,21.30
2023-04-28T16:17:42.333Z,21.34
2023-04-28T16:20:11.553Z,21.22
2023-04-28T16:22:41.393Z,21.25
2023-04-28T16:25:09.759Z,21.15
2023-04-28T16:27:38.958Z,21.12
2023-04-28T16:30:07.452Z,20.98
2023-04-28T16:32:38.342Z,20.92
2023-04-28T16:35:06.589Z,21.02
2023-04-28T16:37:36.356Z,20.88
2023-04-28T16:40:04.538Z,20.39
2023-04-28T16:42:32.033Z,20.42
2023-04-28T16:44:59.747Z,20.52
2023-04-28T16:47:28.309Z,20.39
2023-04-28T16:49:55.781Z,20.24
2023-04-28T16:52:23.236Z,20.17
2023-04-28T16:54:50.428Z,19.92
2023-04-28T16:57:17.799Z,19.71
2023-04-28T16:59:46.491Z,19.56
2023-04-28T17:02:13.986Z,19.46
2023-04-28T17:04:41.854Z,19.18
2023-04-28T17:07:09.482Z,18.93
2023-04-28T17:09:36.839Z,18.63
2023-04-28T17:12:04.957Z,18.27
2023-04-28T17:14:32.318Z,18.26
2023-04-28T17:16:59.797Z,18.60
2023-04-28T17:19:27.498Z,18.65
2023-04-28T17:21:55.599Z,18.56
2023-04-28T17:24:23.677Z,18.45
2023-04-28T17:26:51.823Z,18.30
2023-04-28T17:29:19.059Z,18.22
2023-04-28T17:31:46.492Z,18.23
2023-04-28T17:34:13.805Z,18.15
2023-04-28T17:36:42.128Z,18.17
2023-04-28T17:39:09.670Z,18.20
2023-04-28T17:41:37.213Z,17.85
2023-04-28T17:44:04.688Z,17.60
2023-04-28T17:46:32.490Z,17.49
2023-04-28T17:49:00.385Z,17.20
2023-04-28T17:51:28.657Z,17.25
2023-04-28T17:53:57.016Z,17.27
2023-04-28T17:56:24.660Z,16.90
2023-04-28T17:58:52.395Z,17.04
2023-04-28T18:01:20.009Z,16.98
2023-04-28T18:03:48.109Z,16.71
2023-04-28T18:06:16.138Z,16.83
2023-04-28T18:08:43.314Z,16.85
2023-04-28T18:11:11.520Z,16.81
2023-04-28T18:13:38.783Z,16.83
2023-04-28T18:16:06.305Z,16.87
2023-04-28T18:18:35.550Z,16.88
2023-04-28T18:21:03.218Z,16.83
2023-04-28T18:23:30.668Z,16.83
2023-04-28T18:25:58.256Z,16.78
2023-04-28T18:28:25.503Z,16.76
2023-04-28T18:30:52.835Z,16.73
2023-04-28T18:33:23.106Z,16.71
2023-04-28T18:36:02.228Z,16.67
2023-04-28T18:38:31.709Z,16.62
2023-04-28T18:40:59.050Z,16.53
2023-04-28T18:43:28.190Z,16.48
2023-04-28T18:45:55.666Z,16.44
2023-04-28T18:48:23.459Z,16.38
2023-04-28T18:50:51.010Z,16.39
2023-04-28T18:53:18.536Z,16.36
2023-04-28T18:55:45.949Z,16.33
2023-04-28T18:58:14.960Z,16.27
2023-04-28T19:00:45.740Z,16.23
2023-04-28T19:03:13.546Z,16.22
2023-04-28T19:05:45.202Z,16.15
2023-04-28T19:08:12.981Z,16.11
2023-04-28T19:10:41.282Z,16.08
2023-04-28T19:13:08.755Z,15.98
2023-04-28T19:15:36.317Z,15.95
2023-04-28T19:18:04.765Z,15.88
2023-04-28T19:20:32.508Z,15.81
2023-04-28T19:23:03.707Z,15.80
2023-04-28T19:25:33.524Z,15.77
2023-04-28T19:28:00.821Z,15.72
2023-04-28T19:30:28.293Z,15.67
2023-04-28T19:32:55.567Z,15.63
2023-04-28T19:35:23.372Z,15.60
2023-04-28T19:37:50.622Z,15.56
2023-04-28T19:40:18.208Z,15.52
2023-04-28T19:42:45.340Z,15.46
2023-04-28T19:45:12.683Z,15.40
2023-04-28T19:47:39.986Z,15.33
2023-04-28T19:50:10.060Z,15.27
2023-04-28T19:52:37.438Z,15.21
2023-04-28T19:55:05.358Z,15.17
2023-04-28T19:57:32.439Z,15.13
2023-04-28T19:59:59.889Z,15.07
2023-04-28T20:02:28.513Z,15.06
2023-04-28T20:04:56.608Z,15.06
2023-04-28T20:07:23.670Z,15.03
2023-04-28T20:09:52.601Z,14.98
2023-04-28T20:12:19.889Z,14.90
2023-04-28T20:14:47.343Z,14.88
2023-04-28T20:17:16.945Z,14.80
2023-04-28T20:19:44.565Z,14.76
2023-04-28T20:22:11.684Z,14.69
2023-04-28T20:24:40.117Z,14.64
2023-04-28T20:27:07.185Z,14.57
2023-04-28T20:29:35.073Z,14.52
2023-04-28T20:32:03.592Z,14.42
2023-04-28T20:34:34.162Z,14.37
2023-04-28T20:37:06.350Z,14.30
2023-04-28T20:39:34.505Z,14.25
2023-04-28T20:42:02.598Z,14.19
2023-04-28T20:44:30.098Z,14.13
2023-04-28T20:46:57.334Z,14.07
2023-04-28T20:49:25.205Z,14.03
2023-04-28T20:51:52.632Z,13.96
2023-04-28T20:54:20.144Z,13.88
2023-04-28T20:56:47.272Z,13.78
2023-04-28T20:59:14.886Z,13.82
2023-04-28T21:01:42.060Z,13.83
2023-04-28T21:04:10.438Z,13.76
2023-04-28T21:06:38.334Z,13.72
2023-04-28T21:09:05.796Z,13.68
2023-04-28T21:11:32.965Z,13.63
2023-04-28T21:14:00.423Z,13.56
2023-04-28T21:16:27.579Z,13.52
2023-04-28T21:18:55.007Z,13.46
2023-04-28T21:21:22.409Z,13.41
2023-04-28T21:23:49.892Z,13.38
2023-04-28T21:26:17.214Z,13.33
2023-04-28T21:28:44.658Z,13.28
2023-04-28T21:31:11.824Z,13.27
2023-04-28T21:33:39.237Z,13.23
2023-04-28T21:36:08.107Z,13.17
2023-04-28T21:38:37.197Z,13.09
2023-04-28T21:41:04.759Z,13.01
2023-04-28T21:43:32.402Z,12.95
2023-04-28T21:45:59.603Z,12.88
2023-04-28T21:48:27.064Z,12.81
2023-04-28T21:50:54.223Z,12.76
2023-04-28T21:53:22.084Z,12.72
2023-04-28T21:55:49.672Z,12.68
2023-04-28T21:58:17.472Z,12.63
2023-04-28T22:00:48.509Z,12.59
2023-04-28T22:03:16.477Z,12.51
2023-04-28T22:05:45.135Z,12.48
2023-04-28T22:08:13.783Z,12.43
2023-04-28T22:10:41.265Z,12.35
2023-04-28T22:13:09.082Z,12.27
2023-04-28T22:15:36.350Z,12.22
2023-04-28T22:18:05.219Z,12.16
2023-04-28T22:20:32.873Z,12.15
2023-04-28T22:23:00.290Z,12.10
2023-04-28T22:25:28.245Z,12.06
2023-04-28T22:27:55.815Z,12.02
2023-04-28T22:30:25.660Z,11.97
2023-04-28T22:32:53.918Z,11.87
2023-04-28T22:35:21.363Z,11.80
2023-04-28T22:37:48.774Z,11.74
2023-04-28T22:40:15.921Z,11.71
2023-04-28T22:42:44.515Z,11.65
2023-04-28T22:45:12.047Z,11.60
2023-04-28T22:47:41.181Z,11.55
2023-04-28T22:50:10.736Z,11.48
2023-04-28T22:52:38.511Z,11.47
2023-04-28T22:55:06.393Z,11.45
2023-04-28T22:57:34.335Z,11.42
2023-04-28T23:00:02.378Z,11.35
2023-04-28T23:02:30.074Z,11.30
2023-04-28T23:04:57.815Z,11.27
2023-04-28T23:07:25.812Z,11.28
2023-04-28T23:09:53.387Z,11.21
2023-04-28T23:12:21.802Z,11.13
2023-04-28T23:14:48.933Z,11.09
2023-04-28T23:17:16.445Z,11.06
2023-04-28T23:19:43.679Z,11.01
2023-04-28T23:22:11.124Z,10.94
2023-04-28T23:24:39.795Z,10.93
2023-04-28T23:27:07.343Z,10.89
2023-04-28T23:29:35.819Z,10.82
2023-04-28T23:32:04.317Z,10.77
2023-04-28T23:34:31.625Z,10.66
2023-04-28T23:36:59.358Z,10.62
2023-04-28T23:39:27.009Z,10.57
2023-04-28T23:41:54.444Z,10.54
2023-04-28T23:44:21.500Z,10.51
2023-04-28T23:46:49.278Z,10.47
2023-04-28T23:49:16.509Z,10.42
2023-04-28T23:51:44.017Z,10.38
2023-04-28T23:54:11.574Z,10.31
2023-04-28T23:56:39.342Z,10.31
2023-04-28T23:59:08.212Z,10.26
